createdAt,value
2019-02-26T00:01:28.587Z,4.60
2019-02-26T00:03:53.959Z,4.30
2019-02-26T00:06:25.483Z,4.10
2019-02-26T00:08:54.123Z,4.20
2019-02-26T00:11:19.662Z,4.13
2019-02-26T00:13:48.632Z,4.07
2019-02-26T00:16:15.815Z,4.03
2019-02-26T00:18:43.647Z,4.10
2019-02-26T00:21:11.215Z,4.40
2019-02-26T00:23:38.706Z,4.95
2019-02-26T00:26:06.126Z,4.73
2019-02-26T00:28:34.171Z,4.53
2019-02-26T00:31:01.760Z,4.80
2019-02-26T00:33:29.013Z,4.95
2019-02-26T00:35:56.298Z,5.00
2019-02-26T00:38:23.893Z,5.25
2019-02-26T00:40:52.130Z,5.15
2019-02-26T00:43:23.265Z,5.47
2019-02-26T00:45:47.072Z,5.00
2019-02-26T00:48:14.551Z,4.97
2019-02-26T00:50:43.832Z,4.80
2019-02-26T00:53:11.532Z,5.07
2019-02-26T00:55:39.681Z,4.83
2019-02-26T00:58:08.571Z,4.70
2019-02-26T01:00:35.819Z,4.40
2019-02-26T01:03:04.057Z,4.50
2019-02-26T01:05:30.949Z,3.75
2019-02-26T01:07:58.515Z,4.85
2019-02-26T01:10:27.122Z,4.93
2019-02-26T01:12:56.391Z,4.47
2019-02-26T01:15:23.669Z,4.80
2019-02-26T01:17:54.939Z,4.70
2019-02-26T01:20:24.278Z,4.78
2019-02-26T01:22:48.187Z,4.33
2019-02-26T01:25:17.889Z,4.85
2019-02-26T01:27:45.587Z,4.80
2019-02-26T01:30:12.938Z,4.53
2019-02-26T01:32:40.454Z,6.57
2019-02-26T01:35:09.019Z,4.77
2019-02-26T01:37:36.574Z,4.57
2019-02-26T01:40:02.833Z,4.93
2019-02-26T01:42:31.676Z,5.23
2019-02-26T01:44:58.055Z,4.97
2019-02-26T01:47:26.279Z,5.13
2019-02-26T01:49:53.276Z,4.85
2019-02-26T01:52:20.776Z,4.43
2019-02-26T01:54:48.268Z,5.53
2019-02-26T01:57:17.441Z,5.50
2019-02-26T01:59:44.358Z,5.55
2019-02-26T02:02:14.746Z,4.77
2019-02-26T02:04:41.266Z,4.75
2019-02-26T02:07:07.078Z,4.62
2019-02-26T02:09:34.545Z,4.53
2019-02-26T02:12:04.302Z,4.83
2019-02-26T02:14:30.276Z,4.97
2019-02-26T02:16:57.896Z,4.83
2019-02-26T02:19:27.415Z,7.10
2019-02-26T02:21:53.930Z,4.37
2019-02-26T02:24:22.270Z,4.70
2019-02-26T02:26:50.451Z,4.10
2019-02-26T02:29:16.823Z,4.40
2019-02-26T02:31:43.845Z,4.37
2019-02-26T02:34:11.400Z,4.23
2019-02-26T02:36:39.016Z,3.90
2019-02-26T02:39:10.469Z,4.60
2019-02-26T02:41:34.682Z,4.07
2019-02-26T02:44:02.220Z,4.37
2019-02-26T02:46:29.724Z,4.62
2019-02-26T02:48:57.199Z,4.20
2019-02-26T02:51:26.214Z,4.00
2019-02-26T02:53:56.671Z,4.23
2019-02-26T02:56:21.797Z,4.10
2019-02-26T02:58:51.624Z,3.80
2019-02-26T03:01:21.818Z,5.20
2019-02-26T03:03:53.873Z,4.70
2019-02-26T03:06:18.865Z,4.50
2019-02-26T03:08:47.975Z,3.77
2019-02-26T03:11:13.981Z,4.07
2019-02-26T03:13:43.104Z,3.97
2019-02-26T03:16:09.776Z,3.87
2019-02-26T03:18:37.321Z,4.30
2019-02-26T03:21:04.934Z,3.80
2019-02-26T03:23:33.937Z,3.97
2019-02-26T03:26:00.318Z,4.73
2019-02-26T03:28:27.900Z,3.50
2019-02-26T03:30:55.396Z,3.80
2019-02-26T03:33:22.911Z,3.67
2019-02-26T03:35:50.427Z,4.12
2019-02-26T03:38:20.749Z,3.70
2019-02-26T03:40:49.354Z,4.93
2019-02-26T03:43:16.217Z,3.43
2019-02-26T03:45:47.307Z,3.70
2019-02-26T03:48:10.276Z,3.77
2019-02-26T03:50:38.579Z,5.22
2019-02-26T03:53:09.027Z,4.15
2019-02-26T03:55:35.930Z,4.67
2019-02-26T03:58:02.171Z,3.07
2019-02-26T04:00:28.746Z,3.50
2019-02-26T04:02:56.210Z,3.77
2019-02-26T04:05:23.781Z,3.07
2019-02-26T04:07:53.236Z,3.23
2019-02-26T04:10:18.732Z,3.63
2019-02-26T04:12:48.970Z,3.53
2019-02-26T04:15:13.848Z,7.93
2019-02-26T04:17:42.219Z,9.57
2019-02-26T04:20:08.963Z,4.83
2019-02-26T04:22:39.158Z,3.72
2019-02-26T04:25:12.631Z,4.07
2019-02-26T04:27:48.575Z,4.23
2019-02-26T04:33:50.491Z,4.80
2019-02-26T04:36:44.735Z,4.83
2019-02-26T04:39:34.443Z,4.67
2019-02-26T04:42:22.891Z,4.47
2019-02-26T04:45:04.896Z,4.10
2019-02-26T04:47:33.708Z,4.60
2019-02-26T04:50:00.488Z,7.13
2019-02-26T04:52:29.369Z,4.30
2019-02-26T04:54:54.895Z,4.68
2019-02-26T04:57:22.410Z,5.63
2019-02-26T04:59:49.912Z,4.47
2019-02-26T05:02:17.319Z,4.03
2019-02-26T05:04:44.815Z,4.97
2019-02-26T05:07:14.060Z,4.97
2019-02-26T05:09:39.802Z,4.50
2019-02-26T05:12:07.324Z,4.20
2019-02-26T05:14:34.842Z,6.37
2019-02-26T05:17:02.339Z,4.10
2019-02-26T05:19:32.347Z,3.97
2019-02-26T05:22:01.679Z,4.37
2019-02-26T05:24:27.811Z,4.80
2019-02-26T05:26:55.247Z,3.80
2019-02-26T05:29:22.713Z,6.03
2019-02-26T05:31:50.184Z,4.37
2019-02-26T05:34:20.148Z,4.93
2019-02-26T05:36:46.212Z,4.47
2019-02-26T05:39:14.571Z,4.60
2019-02-26T05:41:40.673Z,6.30
2019-02-26T05:44:10.572Z,4.57
2019-02-26T05:46:35.088Z,4.50
2019-02-26T05:49:03.564Z,5.05
2019-02-26T05:51:32.670Z,4.47
2019-02-26T05:54:01.312Z,4.70
2019-02-26T05:56:25.791Z,5.83
2019-02-26T05:58:53.238Z,4.57
2019-02-26T06:01:22.513Z,6.63
2019-02-26T06:03:49.684Z,4.70
2019-02-26T06:06:15.664Z,5.25
2019-02-26T06:08:43.122Z,9.73
2019-02-26T06:11:10.601Z,6.68
2019-02-26T06:13:40.184Z,4.87
2019-02-26T06:16:07.511Z,4.97
2019-02-26T06:18:33.051Z,5.10
2019-02-26T06:21:01.306Z,7.00
2019-02-26T06:23:31.213Z,5.07
2019-02-26T06:25:59.084Z,4.97
2019-02-26T06:28:23.902Z,5.20
2019-02-26T06:30:51.384Z,5.50
2019-02-26T06:33:18.827Z,6.87
2019-02-26T06:35:46.282Z,6.20
2019-02-26T06:38:13.892Z,8.27
2019-02-26T06:40:41.910Z,5.37
2019-02-26T06:43:08.825Z,5.63
2019-02-26T06:45:37.959Z,5.83
2019-02-26T06:48:03.744Z,5.50
2019-02-26T06:50:31.823Z,5.80
2019-02-26T06:52:59.554Z,9.73
2019-02-26T06:55:27.026Z,5.27
2019-02-26T06:57:55.150Z,11.07
2019-02-26T07:00:24.583Z,5.40
2019-02-26T07:02:49.591Z,5.57
2019-02-26T07:05:17.086Z,6.20
2019-02-26T07:07:44.533Z,6.17
2019-02-26T07:10:15.991Z,5.53
2019-02-26T07:12:41.200Z,6.27
2019-02-26T07:15:07.006Z,5.47
2019-02-26T07:17:36.185Z,5.63
2019-02-26T07:20:03.161Z,5.87
2019-02-26T07:22:32.068Z,5.75
2019-02-26T07:25:00.270Z,5.87
2019-02-26T07:27:28.854Z,5.70
2019-02-26T07:29:55.246Z,5.93
2019-02-26T07:32:24.540Z,6.40
2019-02-26T07:34:52.121Z,6.30
2019-02-26T07:37:17.778Z,6.57
2019-02-26T07:39:47.201Z,7.93
2019-02-26T07:42:14.664Z,8.00
2019-02-26T07:44:40.738Z,6.30
2019-02-26T07:47:08.867Z,6.13
2019-02-26T07:49:35.723Z,8.13
2019-02-26T07:52:05.896Z,7.60
2019-02-26T07:54:30.806Z,6.63
2019-02-26T07:57:00.201Z,6.43
2019-02-26T07:59:27.855Z,6.37
2019-02-26T08:01:53.301Z,6.87
2019-02-26T08:04:20.766Z,7.80
2019-02-26T08:06:48.695Z,10.00
2019-02-26T08:09:17.177Z,12.77
2019-02-26T08:11:46.191Z,8.23
2019-02-26T08:14:11.242Z,8.10
2019-02-26T08:16:38.723Z,9.30
2019-02-26T08:19:06.178Z,10.65
2019-02-26T08:21:33.631Z,8.47
2019-02-26T08:24:01.335Z,9.20
2019-02-26T08:26:29.221Z,7.60
2019-02-26T08:28:56.818Z,8.93
2019-02-26T08:31:25.569Z,8.20
2019-02-26T08:33:51.923Z,9.10
2019-02-26T08:36:19.358Z,12.95
2019-02-26T08:38:46.822Z,8.07
2019-02-26T08:41:14.258Z,8.02
2019-02-26T08:43:44.153Z,8.25
2019-02-26T08:46:10.054Z,8.88
2019-02-26T08:48:36.698Z,8.02
2019-02-26T08:51:06.194Z,8.37
2019-02-26T08:53:32.098Z,7.75
2019-02-26T08:56:03.412Z,8.23
2019-02-26T08:58:28.241Z,8.40
2019-02-26T09:00:54.955Z,8.13
2019-02-26T09:03:22.441Z,11.27
2019-02-26T09:05:51.611Z,10.32
2019-02-26T09:08:18.132Z,9.45
2019-02-26T09:10:46.939Z,8.68
2019-02-26T09:13:14.539Z,8.10
2019-02-26T09:15:41.372Z,8.23
2019-02-26T09:18:07.747Z,9.27
2019-02-26T09:20:35.350Z,10.33
2019-02-26T09:23:02.801Z,7.80
2019-02-26T09:25:31.553Z,10.47
2019-02-26T09:27:57.718Z,9.07
2019-02-26T09:30:27.947Z,12.87
2019-02-26T09:32:54.319Z,8.75
2019-02-26T09:35:25.345Z,8.43
2019-02-26T09:37:52.054Z,8.37
2019-02-26T09:40:20.075Z,8.27
2019-02-26T09:42:47.174Z,9.35
2019-02-26T09:45:23.675Z,9.13
2019-02-26T09:47:51.634Z,8.90
2019-02-26T09:50:17.718Z,8.80
2019-02-26T09:52:45.280Z,9.17
2019-02-26T09:55:12.857Z,9.63
2019-02-26T09:57:40.296Z,11.07
2019-02-26T10:00:09.079Z,9.23
2019-02-26T10:02:36.526Z,8.37
2019-02-26T10:05:03.995Z,10.37
2019-02-26T10:07:35.559Z,8.93
2019-02-26T10:10:00.424Z,9.40
2019-02-26T10:12:28.006Z,9.30
2019-02-26T10:14:54.817Z,9.53
2019-02-26T10:17:21.531Z,11.17
2019-02-26T10:19:48.851Z,9.90
2019-02-26T10:22:16.338Z,10.32
2019-02-26T10:24:43.799Z,10.17
2019-02-26T10:27:12.123Z,9.77
2019-02-26T10:29:39.843Z,9.53
2019-02-26T10:32:06.293Z,9.30
2019-02-26T10:34:33.746Z,10.50
2019-02-26T10:37:01.216Z,12.87
2019-02-26T10:39:29.662Z,9.80
2019-02-26T10:41:57.164Z,9.47
2019-02-26T10:44:24.591Z,11.85
2019-02-26T10:46:52.038Z,9.23
2019-02-26T10:49:19.490Z,11.57
2019-02-26T10:51:46.990Z,8.80
2019-02-26T10:54:17.817Z,9.30
2019-02-26T10:56:44.328Z,11.30
2019-02-26T10:59:12.557Z,9.03
2019-02-26T11:01:36.896Z,12.20
2019-02-26T11:04:04.730Z,12.70
2019-02-26T11:06:33.736Z,9.93
2019-02-26T11:09:01.770Z,10.57
2019-02-26T11:11:26.810Z,8.87
2019-02-26T11:13:54.281Z,8.63
2019-02-26T11:16:25.183Z,8.40
2019-02-26T11:18:49.167Z,8.90
2019-02-26T11:21:16.621Z,8.60
2019-02-26T11:23:46.288Z,8.27
2019-02-26T11:26:13.164Z,8.47
2019-02-26T11:28:40.554Z,6.95
2019-02-26T11:31:09.028Z,7.57
2019-02-26T11:33:35.014Z,7.00
2019-02-26T11:36:05.517Z,8.27
2019-02-26T11:38:34.779Z,6.13
2019-02-26T11:40:59.456Z,6.63
2019-02-26T11:43:28.961Z,6.67
2019-02-26T11:45:56.126Z,6.80
2019-02-26T11:48:23.472Z,6.83
2019-02-26T11:50:49.340Z,7.07
2019-02-26T11:53:16.811Z,6.05
2019-02-26T11:55:44.236Z,8.80
2019-02-26T11:58:13.661Z,7.30
2019-02-26T12:00:41.755Z,6.07
2019-02-26T12:03:06.663Z,5.73
2019-02-26T12:05:36.036Z,5.73
2019-02-26T12:08:01.590Z,5.50
2019-02-26T12:10:30.488Z,5.20
2019-02-26T12:12:57.283Z,6.07
2019-02-26T12:15:24.374Z,6.17
2019-02-26T12:17:54.007Z,6.30
2019-02-26T12:20:19.645Z,6.90
2019-02-26T12:22:49.299Z,6.27
2019-02-26T12:25:14.555Z,5.57
2019-02-26T12:27:43.421Z,6.07
2019-02-26T12:30:10.094Z,6.47
2019-02-26T12:32:36.971Z,6.13
2019-02-26T12:35:05.878Z,6.73
2019-02-26T12:37:31.932Z,6.63
2019-02-26T12:39:59.363Z,7.53
2019-02-26T12:42:26.829Z,6.07
2019-02-26T12:44:57.246Z,5.75
2019-02-26T12:47:24.538Z,9.53
2019-02-26T12:49:49.241Z,6.47
2019-02-26T12:52:17.983Z,6.87
2019-02-26T12:54:44.163Z,6.80
2019-02-26T12:57:11.625Z,10.00
2019-02-26T12:59:39.089Z,11.43
2019-02-26T13:02:09.331Z,7.00
2019-02-26T13:04:34.187Z,7.33
2019-02-26T13:07:01.747Z,7.90
2019-02-26T13:09:29.198Z,10.35
2019-02-26T13:12:02.401Z,7.60
2019-02-26T13:14:24.151Z,7.23
2019-02-26T13:16:53.348Z,8.67
2019-02-26T13:19:22.077Z,7.60
2019-02-26T13:21:47.556Z,8.03
2019-02-26T13:24:17.819Z,9.47
2019-02-26T13:26:46.930Z,12.23
2019-02-26T13:29:10.273Z,7.90
2019-02-26T13:31:42.566Z,10.17
2019-02-26T13:34:05.248Z,7.67
2019-02-26T13:36:36.357Z,6.20
2019-02-26T13:39:00.146Z,7.03
2019-02-26T13:41:30.016Z,6.50
2019-02-26T13:43:55.096Z,5.63
2019-02-26T13:46:22.518Z,6.00
2019-02-26T13:48:49.952Z,6.30
2019-02-26T13:51:17.399Z,6.17
2019-02-26T13:53:45.803Z,10.77
2019-02-26T13:56:13.330Z,6.03
2019-02-26T13:58:41.024Z,6.68
2019-02-26T14:01:08.491Z,6.70
2019-02-26T14:03:36.429Z,8.17
2019-02-26T14:06:04.105Z,6.68
2019-02-26T14:08:31.587Z,8.63
2019-02-26T14:10:59.033Z,6.07
2019-02-26T14:13:26.493Z,6.03
2019-02-26T14:15:53.950Z,6.00
2019-02-26T14:18:21.453Z,6.00
2019-02-26T14:20:48.892Z,5.93
2019-02-26T14:23:16.386Z,5.87
2019-02-26T14:25:43.870Z,14.20
2019-02-26T14:28:11.324Z,6.25
2019-02-26T14:30:38.796Z,5.60
2019-02-26T14:33:06.277Z,8.77
2019-02-26T14:35:33.729Z,6.17
2019-02-26T14:38:01.198Z,6.60
2019-02-26T14:40:29.628Z,6.60
2019-02-26T14:42:57.148Z,6.30
2019-02-26T14:45:24.645Z,5.45
2019-02-26T14:47:52.071Z,6.10
2019-02-26T14:50:20.442Z,5.30
2019-02-26T14:52:47.912Z,6.27
2019-02-26T14:55:15.362Z,6.00
2019-02-26T14:57:42.809Z,8.07
2019-02-26T15:00:27.011Z,5.80
2019-02-26T15:02:55.676Z,6.00
2019-02-26T15:05:23.126Z,8.15
2019-02-26T15:07:50.612Z,8.73
2019-02-26T15:10:18.047Z,9.20
2019-02-26T15:12:46.254Z,8.13
2019-02-26T15:15:18.883Z,5.93
2019-02-26T15:17:46.600Z,5.47
2019-02-26T15:20:20.303Z,5.50
2019-02-26T15:22:47.772Z,8.40
2019-02-26T15:25:21.033Z,5.90
2019-02-26T15:27:48.531Z,6.20
2019-02-26T15:30:16.194Z,6.67
2019-02-26T15:32:43.799Z,6.87
2019-02-26T15:35:11.144Z,7.00
2019-02-26T15:37:38.640Z,8.67
2019-02-26T15:40:06.894Z,7.47
2019-02-26T15:42:34.351Z,8.07
2019-02-26T15:45:01.794Z,9.35
2019-02-26T15:47:30.483Z,11.43
2019-02-26T15:49:56.759Z,7.67
2019-02-26T15:52:24.254Z,7.63
2019-02-26T15:54:51.717Z,7.17
2019-02-26T15:57:19.168Z,6.67
2019-02-26T15:59:46.631Z,6.20
2019-02-26T16:02:14.090Z,8.10
2019-02-26T16:04:41.566Z,6.37
2019-02-26T16:07:09.046Z,8.63
2019-02-26T16:09:36.496Z,6.77
2019-02-26T16:12:03.983Z,7.80
2019-02-26T16:14:31.434Z,8.13
2019-02-26T16:16:58.886Z,6.28
2019-02-26T16:19:26.355Z,6.90
2019-02-26T16:21:54.221Z,8.27
2019-02-26T16:24:21.898Z,5.83
2019-02-26T16:26:49.373Z,6.70
2019-02-26T16:29:16.831Z,5.93
2019-02-26T16:31:44.319Z,7.30
2019-02-26T16:34:14.083Z,11.07
2019-02-26T16:36:41.557Z,14.23
2019-02-26T16:39:09.010Z,11.80
2019-02-26T16:41:38.297Z,9.40
2019-02-26T16:44:04.027Z,8.30
2019-02-26T16:46:31.467Z,9.50
2019-02-26T16:48:58.936Z,11.93
2019-02-26T16:51:26.425Z,11.13
2019-02-26T16:53:53.892Z,9.50
2019-02-26T16:56:21.949Z,15.85
2019-02-26T16:58:48.862Z,11.03
2019-02-26T17:01:16.449Z,9.13
2019-02-26T17:03:43.897Z,8.93
2019-02-26T17:06:11.343Z,9.13
2019-02-26T17:08:38.810Z,12.07
2019-02-26T17:11:06.288Z,10.13
2019-02-26T17:13:33.771Z,9.40
2019-02-26T17:16:01.217Z,8.65
2019-02-26T17:18:28.659Z,8.60
2019-02-26T17:20:56.994Z,10.52
2019-02-26T17:23:23.615Z,12.70
2019-02-26T17:25:51.126Z,8.87
2019-02-26T17:28:18.886Z,11.87
2019-02-26T17:30:47.168Z,19.80
2019-02-26T17:33:14.693Z,18.97
2019-02-26T17:35:42.409Z,10.90
2019-02-26T17:38:10.172Z,8.37
2019-02-26T17:40:38.255Z,8.87
2019-02-26T17:43:06.168Z,8.10
2019-02-26T17:45:37.222Z,10.60
2019-02-26T17:48:03.243Z,9.20
2019-02-26T17:50:36.181Z,9.17
2019-02-26T17:53:03.640Z,9.00
2019-02-26T17:55:31.102Z,9.05
2019-02-26T17:58:00.536Z,11.68
2019-02-26T18:00:26.085Z,8.87
2019-02-26T18:02:53.548Z,11.93
2019-02-26T18:05:21.357Z,10.93
2019-02-26T18:07:48.792Z,9.23
2019-02-26T18:10:16.282Z,8.60
2019-02-26T18:12:43.862Z,8.90
2019-02-26T18:15:11.377Z,11.90
2019-02-26T18:17:38.832Z,13.62
2019-02-26T18:20:14.817Z,9.50
2019-02-26T18:22:42.268Z,9.67
2019-02-26T18:25:09.763Z,11.43
2019-02-26T18:27:37.799Z,9.33
2019-02-26T18:30:06.226Z,9.07
2019-02-26T18:32:33.697Z,13.02
2019-02-26T18:35:01.185Z,14.70
2019-02-26T18:37:28.710Z,16.98
2019-02-26T18:39:56.152Z,11.57
2019-02-26T18:42:23.615Z,12.07
2019-02-26T18:44:54.161Z,12.73
2019-02-26T18:47:20.631Z,11.37
2019-02-26T18:49:47.087Z,10.37
2019-02-26T18:52:14.557Z,10.70
2019-02-26T18:54:42.053Z,9.70
2019-02-26T18:57:11.263Z,10.17
2019-02-26T18:59:36.955Z,10.43
2019-02-26T19:02:04.417Z,10.57
2019-02-26T19:04:31.862Z,10.27
2019-02-26T19:06:59.717Z,11.60
2019-02-26T19:09:27.805Z,12.03
2019-02-26T19:11:55.535Z,11.30
2019-02-26T19:14:21.979Z,11.43
2019-02-26T19:16:54.049Z,11.67
2019-02-26T19:19:16.982Z,12.80
2019-02-26T19:21:44.444Z,12.73
2019-02-26T19:24:13.646Z,11.40
2019-02-26T19:26:41.356Z,10.17
2019-02-26T19:29:10.137Z,12.70
2019-02-26T19:31:36.346Z,14.82
2019-02-26T19:34:03.951Z,10.03
2019-02-26T19:36:31.426Z,11.03
2019-02-26T19:39:00.973Z,10.87
2019-02-26T19:41:26.395Z,10.60
2019-02-26T19:43:53.871Z,11.17
2019-02-26T19:46:23.220Z,10.56
2019-02-26T19:48:50.707Z,10.80
2019-02-26T19:51:21.929Z,12.20
2019-02-26T19:53:45.805Z,15.83
2019-02-26T19:56:13.403Z,13.80
2019-02-26T19:58:41.465Z,12.10
2019-02-26T20:01:08.354Z,11.90
2019-02-26T20:03:40.001Z,12.53
2019-02-26T20:06:03.731Z,13.07
2019-02-26T20:08:31.335Z,14.57
2019-02-26T20:10:58.815Z,17.52
2019-02-26T20:13:26.249Z,12.13
2019-02-26T20:15:54.859Z,11.67
2019-02-26T20:18:25.833Z,11.60
2019-02-26T20:20:48.862Z,11.97
2019-02-26T20:23:16.340Z,13.80
2019-02-26T20:25:43.830Z,11.57
2019-02-26T20:28:11.326Z,12.77
2019-02-26T20:30:38.809Z,11.77
2019-02-26T20:33:06.292Z,11.97
2019-02-26T20:35:33.766Z,11.70
2019-02-26T20:38:01.504Z,12.80
2019-02-26T20:40:28.974Z,11.60
2019-02-26T20:42:56.456Z,12.90
2019-02-26T20:45:24.113Z,12.73
2019-02-26T20:47:52.368Z,12.18
2019-02-26T20:50:21.223Z,12.17
2019-02-26T20:52:47.409Z,13.17
2019-02-26T20:55:20.818Z,16.37
2019-02-26T20:57:48.263Z,14.13
2019-02-26T21:00:16.579Z,10.67
2019-02-26T21:02:44.055Z,12.17
2019-02-26T21:05:11.490Z,12.00
2019-02-26T21:07:38.982Z,12.15
2019-02-26T21:10:06.490Z,12.30
2019-02-26T21:12:34.829Z,12.77
2019-02-26T21:15:01.477Z,10.43
2019-02-26T21:17:28.974Z,12.07
2019-02-26T21:19:56.481Z,11.30
2019-02-26T21:22:24.000Z,12.27
2019-02-26T21:24:51.493Z,14.50
2019-02-26T21:27:18.960Z,10.87
2019-02-26T21:29:46.450Z,11.00
2019-02-26T21:32:13.945Z,11.63
2019-02-26T21:34:42.901Z,15.73
2019-02-26T21:37:08.997Z,16.03
2019-02-26T21:39:36.489Z,12.80
2019-02-26T21:42:03.935Z,11.80
2019-02-26T21:44:31.421Z,14.77
2019-02-26T21:46:58.867Z,12.33
2019-02-26T21:49:26.319Z,11.57
2019-02-26T21:51:55.210Z,10.77
2019-02-26T21:54:24.727Z,10.37
2019-02-26T21:56:50.706Z,10.10
2019-02-26T21:59:18.191Z,10.33
2019-02-26T22:01:46.115Z,12.67
2019-02-26T22:04:13.373Z,13.30
2019-02-26T22:06:44.480Z,9.77
2019-02-26T22:09:08.342Z,11.97
2019-02-26T22:11:35.772Z,16.00
2019-02-26T22:14:03.569Z,9.73
2019-02-26T22:16:30.740Z,8.83
2019-02-26T22:18:58.274Z,9.17
2019-02-26T22:23:53.526Z,10.30
2019-02-26T22:26:20.983Z,10.53
2019-02-26T22:28:50.220Z,7.47
2019-02-26T22:31:17.802Z,8.47
2019-02-26T22:33:46.393Z,8.30
2019-02-26T22:36:12.996Z,7.23
2019-02-26T22:38:40.583Z,10.32
2019-02-26T22:41:08.343Z,7.70
2019-02-26T22:43:35.863Z,7.20
2019-02-26T22:46:03.307Z,6.70
2019-02-26T22:48:30.807Z,18.13
2019-02-26T22:50:59.726Z,7.23
2019-02-26T22:53:25.752Z,8.20
2019-02-26T22:55:53.194Z,8.03
2019-02-26T22:58:20.633Z,6.77
2019-02-26T23:01:01.381Z,6.80
2019-02-26T23:03:28.846Z,6.73
2019-02-26T23:05:58.823Z,11.03
2019-02-26T23:08:23.834Z,7.27
2019-02-26T23:10:51.485Z,6.70
2019-02-26T23:13:18.878Z,5.87
2019-02-26T23:15:48.592Z,6.80
2019-02-26T23:18:16.051Z,7.60
2019-02-26T23:20:43.520Z,5.83
2019-02-26T23:23:10.992Z,5.63
2019-02-26T23:25:38.458Z,5.17
2019-02-26T23:28:05.954Z,4.70
2019-02-26T23:30:33.388Z,4.90
2019-02-26T23:33:00.959Z,6.47
2019-02-26T23:35:28.485Z,5.20
2019-02-26T23:37:56.505Z,6.17
2019-02-26T23:40:27.420Z,5.33
2019-02-26T23:42:53.878Z,6.83
2019-02-26T23:45:24.236Z,5.50
2019-02-26T23:47:51.350Z,5.87
2019-02-26T23:50:19.420Z,6.37
2019-02-26T23:52:47.273Z,6.00
2019-02-26T23:55:16.637Z,6.60
2019-02-26T23:57:44.391Z,7.83
